Data for 05/01/2017

Time Sea-Level Adjusted Pressure Absolute Pressure Temperature Relative Humidity Dew Point   
(mb) (inHg) (mb) (inHg) (C) (F) (%) (C) (F)
00:05 1018 30.06 847 25.01 6.1 42.9 53 -2.9 26.8
00:10 1018 30.06 847 25.01 6.1 43 51 -3.1 26.4
00:15 1018 30.06 847 25.01 6.2 43.2 50 -3.3 26.1
00:20 1018 30.06 848 25.04 6.3 43.4 51 -3 26.6
00:25 1018 30.06 848 25.04 6.2 43.2 51 -3 26.5
00:30 1018 30.06 848 25.04 6.2 43.2 52 -3 26.6
00:35 1018 30.06 848 25.04 6.2 43.1 52 -3.1 26.5
00:40 1019 30.09 848 25.04 6.1 43 52 -3.1 26.5
00:45 1019 30.09 848 25.04 6 42.9 51 -3.4 25.9
00:50 1019 30.09 848 25.04 6.1 42.9 50 -3.5 25.7
00:55 1019 30.09 848 25.04 6.1 42.9 50 -3.6 25.5
01:00 1019 30.09 848 25.04 6.1 43 50 -3.6 25.5
01:05 1019 30.09 848 25.04 6.1 43 50 -3.5 25.7
01:10 1019 30.09 848 25.04 6.1 43 50 -3.6 25.4
01:15 1019 30.09 848 25.04 6.1 42.9 49 -4 24.9
01:20 1019 30.09 848 25.04 6.1 43 48 -4.1 24.7
01:25 1019 30.09 848 25.04 6.1 43.1 48 -4.1 24.6
01:30 1019 30.09 848 25.04 6.1 43 47 -4.3 24.3
01:35 1019 30.09 848 25.04 6.1 42.9 47 -4.3 24.3
01:40 1019 30.09 848 25.04 6 42.8 47 -4.4 24.2
01:45 1019 30.09 848 25.04 5.9 42.7 48 -4.3 24.2
01:50 1019 30.09 848 25.04 5.9 42.6 48 -4.4 24.1
01:55 1019 30.09 848 25.04 5.8 42.4 48 -4.3 24.2
02:00 1019 30.09 848 25.04 5.7 42.3 49 -4 24.8
02:05 1019 30.09 848 25.04 5.6 42 51 -3.7 25.4
02:10 1019 30.09 848 25.04 5.3 41.6 52 -3.8 25.2
02:15 1019 30.09 848 25.04 5.3 41.6 52 -3.7 25.4
02:20 1019 30.09 848 25.04 5.3 41.5 52 -3.7 25.4
02:25 1019 30.09 848 25.04 5.3 41.5 53 -3.5 25.7
02:30 1019 30.09 848 25.04 5.3 41.5 53 -3.5 25.7
02:35 1019 30.09 848 25.04 5.1 41.3 54 -3.3 26.1
02:40 1019 30.09 848 25.04 5 41 56 -3.1 26.4
02:45 1019 30.09 848 25.04 4.9 40.8 56 -3 26.6
02:50 1019 30.09 848 25.04 4.9 40.7 56 -3.2 26.2
02:55 1019 30.09 848 25.04 4.9 40.8 55 -3.4 25.9
03:00 1019 30.09 848 25.04 5 41 54 -3.5 25.7
03:05 1019 30.09 848 25.04 5 41 55 -3.3 26.1
03:10 1019 30.09 848 25.04 4.9 40.8 56 -3.2 26.2
03:15 1019 30.09 848 25.04 4.8 40.7 56 -3.2 26.3
03:20 1019 30.09 848 25.04 4.8 40.6 56 -3.2 26.2
03:25 1019 30.09 848 25.04 4.7 40.5 57 -3.2 26.3
03:30 1019 30.09 848 25.04 4.6 40.3 57 -3.1 26.5
03:35 1019 30.09 848 25.04 4.5 40.2 58 -3.1 26.5
03:40 1019 30.09 848 25.04 4.5 40 58 -3.1 26.3
03:45 1019 30.09 848 25.04 4.4 40 58 -3.1 26.4
03:50 1019 30.09 848 25.04 4.3 39.8 58 -3.1 26.4
03:55 1019 30.09 848 25.04 4.3 39.8 59 -3 26.5
04:00 1019 30.09 848 25.04 4.3 39.8 59 -3 26.5
04:05 1019 30.09 848 25.04 4.3 39.7 58 -3.1 26.3
04:10 1019 30.09 848 25.04 4.3 39.7 58 -3.2 26.2
04:15 1019 30.09 849 25.07 4.3 39.7 59 -3.1 26.3
04:20 1019 30.09 849 25.07 4.2 39.6 59 -3.2 26.3
04:25 1019 30.09 849 25.07 4.2 39.5 58 -3.2 26.2
04:30 1019 30.09 848 25.04 4.1 39.5 58 -3.4 25.9
04:35 1019 30.09 849 25.07 4.2 39.5 58 -3.4 26
04:40 1019 30.09 849 25.07 4.1 39.4 58 -3.5 25.7
04:45 1019 30.09 849 25.07 4.1 39.4 58 -3.3 26
04:50 1020 30.12 849 25.07 4 39.2 59 -3.3 26.1
04:55 1020 30.12 849 25.07 3.9 39.1 59 -3.3 26.1
05:00 1020 30.12 849 25.07 3.9 39 59 -3.5 25.8
05:05 1020 30.12 849 25.07 3.9 39.1 59 -3.4 25.8
05:10 1020 30.12 849 25.07 3.9 39.1 58 -3.5 25.7
05:15 1020 30.12 849 25.07 3.8 38.9 60 -3.3 26
05:20 1020 30.12 849 25.07 3.7 38.7 60 -3.4 25.8
05:25 1019 30.09 849 25.07 3.6 38.5 59 -3.6 25.6
05:30 1020 30.12 849 25.07 3.6 38.5 60 -3.5 25.6
05:35 1020 30.12 849 25.07 3.6 38.5 59 -3.8 25.2
05:40 1020 30.12 849 25.07 3.6 38.4 59 -3.8 25.2
05:45 1020 30.12 849 25.07 3.5 38.4 59 -3.7 25.4
05:50 1020 30.12 849 25.07 3.4 38.2 60 -3.7 25.4
05:55 1020 30.12 849 25.07 3.3 38 60 -3.7 25.3
06:00 1020 30.12 849 25.07 3.3 38 60 -3.7 25.3
06:05 1020 30.12 849 25.07 3.2 37.7 61 -3.7 25.3
06:10 1020 30.12 849 25.07 3 37.5 61 -3.6 25.4
06:15 1020 30.12 849 25.07 3 37.4 62 -3.6 25.5
06:20 1020 30.12 849 25.07 3 37.5 62 -3.6 25.6
06:25 1020 30.12 849 25.07 3 37.4 62 -3.5 25.7
06:30 1020 30.12 849 25.07 2.9 37.2 64 -3.3 26.1
06:35 1020 30.12 849 25.07 2.6 36.7 65 -3.3 26
06:40 1020 30.12 849 25.07 2.4 36.3 66 -3.3 26
06:45 1020 30.12 849 25.07 2.2 36 68 -3.1 26.3
06:50 1020 30.12 849 25.07 2.2 36 66 -3.4 25.9
06:55 1020 30.12 849 25.07 2.7 36.8 63 -3.6 25.4
07:00 1020 30.12 849 25.07 3 37.3 61 -3.7 25.3
07:05 1020 30.12 849 25.07 3.1 37.6 61 -3.8 25.2
07:10 1020 30.12 849 25.07 3.2 37.7 61 -3.7 25.3
07:15 1020 30.12 849 25.07 3.3 37.9 60 -3.8 25.1
07:20 1020 30.12 849 25.07 3.3 37.9 59 -3.9 24.9
07:25 1020 30.12 849 25.07 3.4 38.2 59 -3.8 25.2
07:30 1020 30.12 849 25.07 3.5 38.3 59 -3.7 25.3
07:35 1020 30.12 850 25.1 3.5 38.4 59 -3.6 25.5
07:40 1020 30.12 850 25.1 3.7 38.7 59 -3.6 25.5
07:45 1020 30.12 850 25.1 3.8 38.8 58 -3.6 25.5
07:50 1020 30.12 849 25.07 4 39.1 58 -3.5 25.7
07:55 1020 30.12 849 25.07 4.2 39.5 58 -3.3 26.1
08:00 1020 30.12 849 25.07 4.5 40 55 -3.7 25.3
08:05 1020 30.12 849 25.07 4.7 40.5 53 -4.1 24.6
08:10 1020 30.12 849 25.07 5.1 41.2 52 -3.9 25
08:15 1020 30.12 850 25.1 5.3 41.6 49 -4.6 23.7
08:20 1020 30.12 850 25.1 5.3 41.6 49 -4.5 23.9
08:25 1020 30.12 850 25.1 5.4 41.7 50 -4.3 24.2
08:30 1020 30.12 850 25.1 5.4 41.7 49 -4.6 23.8
08:35 1020 30.12 850 25.1 5.3 41.5 49 -4.5 23.9
08:40 1020 30.12 849 25.07 5.6 42.1 48 -4.5 24
08:45 1020 30.12 849 25.07 5.9 42.6 47 -4.6 23.7
08:50 1020 30.12 850 25.1 6 42.7 47 -4.6 23.7
08:55 1020 30.12 850 25.1 5.9 42.6 47 -4.5 23.9
09:00 1020 30.12 850 25.1 6.1 42.9 46 -4.6 23.7
09:05 1020 30.12 850 25.1 6.4 43.5 44 -4.9 23.1
09:10 1020 30.12 850 25.1 7.2 44.9 43 -4.5 24
09:15 1020 30.12 850 25.1 7.1 44.8 44 -4.4 24.1
09:20 1020 30.12 850 25.1 6.6 43.9 45 -4.5 23.9
09:25 1020 30.12 850 25.1 6.5 43.7 46 -4.4 24.1
09:30 1021 30.15 850 25.1 6.2 43.1 46 -4.6 23.7
09:35 1021 30.15 850 25.1 6.2 43.1 45 -4.9 23.2
09:40 1021 30.15 850 25.1 6.9 44.4 42 -5.1 22.8
09:45 1021 30.15 850 25.1 7.2 45 44 -4.2 24.4
09:50 1021 30.15 850 25.1 7.1 44.8 43 -4.6 23.7
09:55 1021 30.15 850 25.1 7.4 45.4 42 -4.5 23.9
10:00 1020 30.12 850 25.1 7.3 45.1 42 -4.7 23.6
10:05 1020 30.12 850 25.1 7 44.5 42 -5.1 22.9
10:10 1020 30.12 850 25.1 7 44.5 43 -4.7 23.5
10:15 1020 30.12 850 25.1 7.7 45.9 41 -4.8 23.4
10:20 1020 30.12 850 25.1 7.7 45.9 41 -4.6 23.8
10:25 1020 30.12 850 25.1 7.2 45 42 -4.7 23.5
10:30 1020 30.12 850 25.1 6.9 44.4 41 -5.5 22.1
10:35 1020 30.12 850 25.1 7.4 45.3 39 -5.8 21.5
10:40 1020 30.12 850 25.1 8.2 46.8 37 -5.5 22
10:45 1020 30.12 850 25.1 7.9 46.2 39 -5.2 22.7
10:50 1020 30.12 850 25.1 8 46.5 39 -5.2 22.6
10:55 1020 30.12 850 25.1 8.6 47.5 38 -5.1 22.9
11:00 1020 30.12 850 25.1 8.3 46.9 36 -5.8 21.6
11:05 1020 30.12 850 25.1 8.4 47.1 40 -4.3 24.2
11:10 1020 30.12 850 25.1 8 46.5 39 -5.1 22.9
11:15 1020 30.12 850 25.1 8.7 47.7 38 -4.8 23.3
11:20 1020 30.12 850 25.1 9.5 49.1 35 -5.3 22.5
11:25 1020 30.12 850 25.1 9.3 48.7 38 -4.3 24.2
11:30 1020 30.12 850 25.1 9.6 49.2 34 -5.4 22.2
11:35 1020 30.12 849 25.07 10.1 50.2 34 -5 23
11:40 1020 30.12 849 25.07 9.8 49.6 35 -4.9 23.3
11:45 1020 30.12 849 25.07 8.8 47.8 37 -5.2 22.7
11:50 1020 30.12 849 25.07 8.3 46.9 39 -4.8 23.4
11:55 1020 30.12 849 25.07 8.2 46.8 39 -4.8 23.4
12:00 1020 30.12 849 25.07 8.5 47.2 35 -6 21.2
12:05 1020 30.12 849 25.07 9.2 48.5 37 -4.8 23.4
12:10 1020 30.12 849 25.07 9.3 48.8 34 -5.7 21.8
12:15 1020 30.12 849 25.07 9.7 49.5 33 -5.9 21.4
12:20 1020 30.12 849 25.07 9.7 49.5 35 -4.8 23.3
12:25 1020 30.12 849 25.07 9.3 48.7 34 -5.9 21.3
12:30 1020 30.12 849 25.07 9.6 49.2 32 -6.2 20.8
12:35 1020 30.12 849 25.07 10.3 50.6 31 -5.9 21.4
12:40 1020 30.12 849 25.07 10.1 50.1 32 -6.1 21.1
12:45 1020 30.12 849 25.07 9.8 49.6 31 -6.7 19.9
12:50 1020 30.12 849 25.07 10.1 50.3 30 -6.7 19.9
12:55 1020 30.12 849 25.07 10.4 50.7 31 -6.1 21
13:00 1020 30.12 849 25.07 9.6 49.2 31 -6.7 20
13:05 1020 30.12 849 25.07 9.7 49.5 30 -6.8 19.7
13:10 1020 30.12 849 25.07 10.1 50.3 29 -6.9 19.6
13:15 1020 30.12 849 25.07 11 51.7 29 -6.3 20.7
13:20 1020 30.12 849 25.07 10.4 50.6 31 -6.1 21
13:25 1020 30.12 849 25.07 10.5 51 30 -6.3 20.7
13:30 1020 30.12 849 25.07 11 51.9 29 -6.5 20.3
13:35 1020 30.12 849 25.07 10.9 51.7 28 -6.7 20
13:40 1020 30.12 849 25.07 11.5 52.6 28 -6.5 20.3
13:45 1020 30.12 849 25.07 10.9 51.7 28 -7.1 19.3
13:50 1019 30.09 849 25.07 11.2 52.2 28 -6.8 19.7
13:55 1019 30.09 849 25.07 10 50 29 -7 19.3
14:00 1019 30.09 849 25.07 10 50 29 -7.1 19.2
14:05 1019 30.09 848 25.04 10.4 50.6 29 -7 19.4
14:10 1019 30.09 848 25.04 10.1 50.2 29 -7.1 19.2
14:15 1019 30.09 848 25.04 10.2 50.4 28 -7.3 18.9
14:20 1019 30.09 848 25.04 10.1 50.1 29 -7 19.4
14:25 1019 30.09 848 25.04 9.9 49.8 30 -7 19.4
14:30 1019 30.09 848 25.04 10.5 50.8 27 -7.5 18.5
14:35 1019 30.09 848 25.04 11.1 51.9 26 -7.5 18.4
14:40 1019 30.09 848 25.04 11.4 52.6 26 -7.5 18.5
14:45 1019 30.09 848 25.04 12.1 53.9 25 -7.4 18.8
14:50 1019 30.09 848 25.04 12 53.7 25 -7.6 18.4
14:55 1019 30.09 848 25.04 12.4 54.3 24 -7.7 18.1
15:00 1019 30.09 848 25.04 12.9 55.1 24 -7.4 18.6
15:05 1019 30.09 848 25.04 13.2 55.7 23 -7.7 18.2
15:10 1019 30.09 848 25.04 12.2 54 25 -7.1 19.3
15:15 1019 30.09 848 25.04 11.7 53 25 -7.6 18.3
15:20 1019 30.09 848 25.04 11.9 53.4 25 -7.6 18.2
15:25 1019 30.09 848 25.04 12 53.5 24 -8 17.7
15:30 1019 30.09 848 25.04 12.1 53.7 23 -8.5 16.8
15:35 1019 30.09 848 25.04 11.7 53 25 -7.6 18.3
15:40 1018 30.06 848 25.04 11.9 53.5 25 -7.6 18.3
15:45 1018 30.06 848 25.04 12.4 54.3 23 -8.2 17.3
15:50 1018 30.06 847 25.01 13 55.5 23 -7.4 18.7
15:55 1018 30.06 847 25.01 12.9 55.3 23 -7.8 17.9
16:00 1018 30.06 847 25.01 12.5 54.4 24 -7.5 18.6
16:05 1018 30.06 847 25.01 11.3 52.3 26 -7.7 18.1
16:10 1018 30.06 847 25.01 11.9 53.4 24 -8.1 17.5
16:15 1018 30.06 847 25.01 13.2 55.8 23 -7.6 18.2
16:20 1018 30.06 847 25.01 12.5 54.5 24 -7.2 19
16:25 1018 30.06 847 25.01 12.3 54.2 25 -7.2 19
16:30 1018 30.06 847 25.01 12.3 54.1 23 -8 17.7
16:35 1018 30.06 847 25.01 12.2 53.9 26 -7 19.5
16:40 1018 30.06 847 25.01 12.2 54 25 -7.1 19.2
16:45 1018 30.06 847 25.01 12.5 54.6 23 -8 17.7
16:50 1018 30.06 847 25.01 12.1 53.7 25 -7.3 18.9
16:55 1018 30.06 847 25.01 11.6 52.9 25 -7.9 17.7
17:00 1018 30.06 847 25.01 12.2 53.9 25 -7.3 18.9
17:05 1018 30.06 847 25.01 12 53.5 24 -7.7 18.1
17:10 1018 30.06 847 25.01 11.5 52.7 25 -7.7 18.2
17:15 1018 30.06 847 25.01 11.8 53.3 24 -8 17.6
17:20 1017 30.03 847 25.01 12.2 53.9 24 -7.8 17.9
17:25 1017 30.03 847 25.01 12.7 54.9 23 -7.9 17.7
17:30 1017 30.03 847 25.01 13.2 55.8 22 -8.2 17.2
17:35 1017 30.03 847 25.01 13.1 55.6 22 -7.9 17.8
17:40 1017 30.03 846 24.98 12.7 54.9 23 -8 17.5
17:45 1017 30.03 846 24.98 13 55.4 22 -8.1 17.4
17:50 1017 30.03 846 24.98 12.8 55 22 -8.1 17.4
17:55 1017 30.03 846 24.98 11.8 53.2 24 -7.8 17.9
18:00 1017 30.03 846 24.98 11.4 52.5 26 -7.3 18.8
18:05 1017 30.03 846 24.98 11.1 52 26 -7.8 17.9
18:10 1017 30.03 846 24.98 11.6 52.9 24 -8.2 17.3
18:15 1017 30.03 846 24.98 11.4 52.6 25 -7.9 17.8
18:20 1017 30.03 846 24.98 11.5 52.8 26 -7.3 18.8
18:25 1017 30.03 846 24.98 10.6 51.1 27 -7.7 18.1
18:30 1017 30.03 846 24.98 10.2 50.4 27 -7.9 17.8
18:35 1017 30.03 846 24.98 10.3 50.5 27 -8.1 17.5
18:40 1016 30 846 24.98 10.7 51.3 26 -8 17.7
18:45 1016 30 846 24.98 10.9 51.6 26 -7.8 18
18:50 1016 30 846 24.98 10.8 51.4 26 -7.9 17.7
18:55 1016 30 846 24.98 10.7 51.2 26 -8 17.7
19:00 1016 30 846 24.98 10.7 51.2 26 -7.8 17.9
19:05 1016 30 845 24.95 10.8 51.4 28 -7.1 19.1
19:10 1016 30 845 24.95 10.5 50.9 28 -7.3 18.8
19:15 1016 30 845 24.95 10.2 50.4 28 -7.5 18.5
19:20 1016 30 845 24.95 10.2 50.4 28 -7.4 18.8
19:25 1016 30 845 24.95 10.2 50.4 28 -7.6 18.3
19:30 1016 30 845 24.95 10 50 27 -8 17.6
19:35 1016 30 845 24.95 9.9 49.7 27 -8.3 17
19:40 1016 30 845 24.95 9.9 49.7 28 -7.9 17.9
19:45 1016 30 845 24.95 10 50 29 -7.4 18.7
19:50 1016 30 845 24.95 10.1 50.2 28 -7.4 18.6
19:55 1016 30 845 24.95 10 50 28 -7.4 18.6
20:00 1016 30 845 24.95 9.9 49.9 29 -7.4 18.7
20:05 1016 30 845 24.95 10 49.9 29 -7.2 19
20:10 1016 30 845 24.95 9.9 49.8 29 -7.3 18.9
20:15 1016 30 845 24.95 9.8 49.7 29 -7.3 18.8
20:20 1016 30 845 24.95 9.8 49.7 29 -7.3 18.9
20:25 1016 30 845 24.95 9.9 49.7 30 -6.9 19.6
20:30 1016 30 845 24.95 9.7 49.4 31 -6.7 20
20:35 1016 30 845 24.95 9.5 49.1 31 -6.6 20.1
20:40 1016 30 845 24.95 9.4 49 32 -6.3 20.6
20:45 1016 30 845 24.95 9.5 49 32 -6.5 20.3
20:50 1016 30 845 24.95 9.5 49 31 -6.6 20.1
20:55 1016 30 845 24.95 9.6 49.2 30 -7.2 19.1
21:00 1016 30 845 24.95 9.5 49.1 32 -6.5 20.3
21:05 1016 30 845 24.95 9.4 48.9 29 -7.8 18
21:10 1016 30 846 24.98 9.9 49.8 30 -6.9 19.6
21:15 1016 30 845 24.95 9.6 49.3 33 -5.6 21.8
21:20 1016 30 846 24.98 9.2 48.5 38 -4.4 24
21:25 1017 30.03 846 24.98 8.9 48 36 -5.5 22.2
21:30 1016 30 846 24.98 9.1 48.4 33 -6.3 20.6
21:35 1016 30 846 24.98 9.4 48.8 34 -5.7 21.8
21:40 1017 30.03 846 24.98 9.3 48.7 34 -5.8 21.5
21:45 1017 30.03 846 24.98 9.3 48.8 34 -5.7 21.8
21:50 1017 30.03 846 24.98 9.4 48.9 34 -5.5 22
21:55 1017 30.03 846 24.98 9.4 48.9 33 -5.9 21.4
22:00 1017 30.03 846 24.98 9.4 48.9 33 -5.9 21.5
22:05 1017 30.03 846 24.98 9.4 49 34 -5.5 22
22:10 1017 30.03 846 24.98 9.3 48.7 38 -4.3 24.3
22:15 1017 30.03 846 24.98 9.1 48.3 39 -4.1 24.7
22:20 1017 30.03 846 24.98 8.9 48.1 41 -3.7 25.4
22:25 1017 30.03 846 24.98 8.7 47.7 43 -3.2 26.3
22:30 1017 30.03 846 24.98 8.5 47.3 44 -3 26.6
22:35 1017 30.03 846 24.98 8.4 47 45 -2.7 27.1
22:40 1017 30.03 846 24.98 8.1 46.5 47 -2.4 27.7
22:45 1017 30.03 846 24.98 8 46.4 48 -2.3 27.9
22:50 1017 30.03 846 24.98 7.9 46.3 48 -2.5 27.5
22:55 1017 30.03 846 24.98 7.9 46.3 48 -2.5 27.5
23:00 1017 30.03 846 24.98 7.8 46 49 -2.2 28
23:05 1017 30.03 846 24.98 7.7 45.8 49 -2.3 27.9
23:10 1017 30.03 846 24.98 7.6 45.6 50 -2.2 28
23:15 1017 30.03 846 24.98 7.4 45.3 51 -2 28.5
23:20 1017 30.03 846 24.98 7.3 45.1 52 -1.8 28.7
23:25 1017 30.03 846 24.98 6.9 44.5 59 -0.4 31.3
23:30 1017 30.03 846 24.98 6.4 43.6 62 -0.2 31.6
23:35 1017 30.03 846 24.98 6.2 43.1 62 -0.5 31
23:40 1017 30.03 846 24.98 6.1 43.1 60 -1 30.2
23:45 1017 30.03 846 24.98 5.9 42.6 62 -0.8 30.6
23:50 1017 30.03 846 24.98 5.9 42.6 61 -0.9 30.4
23:55 1017 30.03 846 24.98 5.7 42.3 63 -0.7 30.8
24:00 1017 30.03 846 24.98 5.6 42.1 65 -0.3 31.4